createdAt,value
2022-11-21T07:06:04.265Z,99651.09
2022-11-21T07:11:25.460Z,99653.97
2022-11-21T07:16:31.755Z,99643.50
2022-11-21T07:21:33.789Z,99666.47
2022-11-21T07:26:35.805Z,99665.44
2022-11-21T07:31:37.874Z,99665.44
2022-11-21T07:36:39.925Z,99645.94
2022-11-21T07:41:41.945Z,99664.63
2022-11-21T07:46:43.972Z,99652.94
2022-11-21T07:51:45.970Z,99655.19
2022-11-21T07:56:47.993Z,99669.34
2022-11-21T08:01:51.736Z,99676.13
2022-11-21T08:06:53.773Z,99681.66
2022-11-21T08:11:55.779Z,99666.47
2022-11-21T08:16:57.798Z,99686.78
2022-11-21T08:22:00.014Z,99690.88
2022-11-21T08:27:02.066Z,99672.31
2022-11-21T08:32:04.207Z,99687.59
2022-11-21T08:37:06.296Z,99682.09
2022-11-21T08:42:08.274Z,99691.25
2022-11-21T08:47:10.262Z,99700.72
2022-11-21T08:52:14.182Z,99710.25
2022-11-21T08:57:16.271Z,99709.00
2022-11-21T09:02:18.312Z,99713.91
2022-11-21T09:07:20.343Z,99712.28
2022-11-21T09:12:22.442Z,99699.88
2022-11-21T09:17:42.710Z,99701.50
2022-11-21T09:22:44.730Z,99700.56
2022-11-21T09:27:47.005Z,99702.69
2022-11-21T09:32:49.166Z,99706.00
2022-11-21T09:37:52.025Z,99688.34
2022-11-21T09:43:22.033Z,99684.97
2022-11-21T09:48:26.902Z,99710.59
2022-11-21T09:53:34.586Z,99712.63
2022-11-21T09:58:42.369Z,99691.41
2022-11-21T10:03:47.384Z,99697.47
2022-11-21T10:08:52.611Z,99696.37
2022-11-21T10:14:02.996Z,99706.41
2022-11-21T10:19:32.043Z,99702.06
2022-11-21T10:24:57.691Z,99681.66
2022-11-21T10:30:04.628Z,99687.78
2022-11-21T10:35:19.351Z,99668.63
2022-11-21T10:40:35.382Z,99659.53
2022-11-21T10:45:37.449Z,99650.56
2022-11-21T10:51:21.666Z,99645.47
2022-11-21T10:56:26.754Z,99665.19
2022-11-21T11:01:35.079Z,99645.13
2022-11-21T11:06:38.878Z,99663.47
2022-11-21T11:11:40.934Z,99647.06
2022-11-21T11:16:46.208Z,99642.72
2022-11-21T11:21:49.572Z,99648.41
2022-11-21T11:26:59.455Z,99643.06
2022-11-21T11:32:05.119Z,99632.66
2022-11-21T11:37:19.538Z,99612.75
2022-11-21T11:42:49.189Z,99616.16
2022-11-21T11:47:56.778Z,99611.50
2022-11-21T11:53:17.349Z,99591.97
2022-11-21T11:58:25.738Z,99584.44
2022-11-21T12:03:50.953Z,99586.44
2022-11-21T12:09:06.497Z,99583.91
2022-11-21T12:15:16.398Z,99569.53
2022-11-21T12:20:23.228Z,99570.41
2022-11-21T12:25:37.584Z,99557.00
2022-11-21T12:30:51.654Z,99554.53
2022-11-21T12:36:35.674Z,99555.09
2022-11-21T12:42:06.795Z,99547.72
2022-11-21T12:48:05.198Z,99530.16
2022-11-21T12:53:51.248Z,99543.44
2022-11-21T12:58:56.269Z,99529.44
2022-11-21T13:04:09.133Z,99529.03
2022-11-21T13:09:18.466Z,99518.16
2022-11-21T13:14:33.062Z,99533.06
2022-11-21T13:19:44.040Z,99540.41
2022-11-21T13:24:47.290Z,99533.81
2022-11-21T13:30:07.579Z,99548.56
2022-11-21T13:35:21.812Z,99536.03
2022-11-21T13:40:26.561Z,99540.78
2022-11-21T13:45:43.892Z,99546.53
2022-11-21T13:50:52.351Z,99536.37
2022-11-21T13:56:28.772Z,99533.69
2022-11-21T14:01:58.719Z,99532.66
2022-11-21T14:07:38.018Z,99536.81
2022-11-21T14:12:44.828Z,99530.00
2022-11-21T14:17:58.726Z,99523.75
2022-11-21T14:23:16.292Z,99542.44
2022-11-21T14:28:26.941Z,99527.38
2022-11-21T14:33:37.481Z,99538.22
2022-11-21T14:38:50.990Z,99539.56
2022-11-21T14:44:00.903Z,99532.41
2022-11-21T14:49:25.887Z,99549.47
2022-11-21T14:54:59.955Z,99549.97
2022-11-21T15:00:07.104Z,99558.03
2022-11-21T15:05:29.020Z,99551.06
2022-11-21T15:10:38.180Z,99550.47
2022-11-21T15:15:48.185Z,99555.59
2022-11-21T15:20:54.019Z,99557.47
2022-11-21T15:26:00.993Z,99573.47
2022-11-21T15:31:21.938Z,99577.56
2022-11-21T15:36:24.158Z,99578.97
2022-11-21T15:41:35.943Z,99581.44
2022-11-21T15:46:42.022Z,99582.63
2022-11-21T15:57:12.055Z,99598.03
2022-11-21T16:02:15.066Z,99594.88
2022-11-21T16:07:17.227Z,99589.75
2022-11-21T16:12:19.301Z,99582.50
2022-11-21T16:17:21.426Z,99594.28
2022-11-21T16:22:23.448Z,99599.34
2022-11-21T16:27:25.483Z,99591.84
2022-11-21T16:32:27.968Z,99575.84
2022-11-21T16:37:33.307Z,99583.56
2022-11-21T16:42:35.310Z,99566.25
2022-11-21T16:47:38.102Z,99556.88
2022-11-21T16:52:40.175Z,99557.00
2022-11-21T16:57:43.191Z,99581.94
2022-11-21T17:02:45.233Z,99565.50
2022-11-21T17:07:47.796Z,99570.97
2022-11-21T17:12:49.829Z,99562.72
2022-11-21T17:17:52.063Z,99555.00
2022-11-21T17:22:54.070Z,99602.03
2022-11-21T17:27:56.939Z,99592.59
2022-11-21T17:32:58.985Z,99607.94
2022-11-21T17:38:01.000Z,99604.87
2022-11-21T17:43:03.263Z,99586.78
2022-11-21T17:48:05.575Z,99599.84
2022-11-21T17:53:07.759Z,99607.81
2022-11-21T17:58:12.965Z,99605.69
2022-11-21T18:03:14.995Z,99606.09
2022-11-21T18:08:17.213Z,99599.16
2022-11-21T18:13:19.280Z,99616.75
2022-11-21T18:18:24.086Z,99613.34
2022-11-21T18:23:27.863Z,99601.00
2022-11-21T18:28:30.425Z,99604.59
2022-11-21T18:33:32.476Z,99592.34
2022-11-21T18:38:58.506Z,99592.00
2022-11-21T18:44:04.766Z,99596.69
2022-11-21T18:49:08.045Z,99600.78
2022-11-21T18:54:11.159Z,99603.94
2022-11-21T18:59:13.363Z,99590.09
2022-11-21T19:04:15.620Z,99592.19
2022-11-21T19:09:17.701Z,99578.25
2022-11-21T19:14:19.958Z,99586.56
2022-11-21T19:19:37.478Z,99583.28
2022-11-21T19:24:39.590Z,99575.06
2022-11-21T19:29:41.595Z,99596.13
2022-11-21T19:34:43.574Z,99603.59
2022-11-21T19:39:45.582Z,99585.41
2022-11-21T19:44:47.638Z,99585.44
2022-11-21T19:49:49.658Z,99590.00
2022-11-21T19:54:51.709Z,99596.06
2022-11-21T19:59:53.732Z,99608.31
2022-11-21T20:04:55.765Z,99619.09
2022-11-21T20:09:57.786Z,99604.69
2022-11-21T20:14:59.789Z,99602.06
2022-11-21T20:20:01.871Z,99632.31
2022-11-21T20:25:04.109Z,99610.13
